Time;durP1;ratioP1;P1;durP2;ratioP2;P2;SDS_P1;SDS_P2;PMS_P1;PMS_P2;Temp;Humidity;BMP_temperature;BMP_pressure;BME280_temperature;BME280_humidity;BME280_pressure;Samples;Min_cycle;Max_cycle;Signal;HPM_P1;HPM_P2
2022/11/14 00:00:18;;;;;;;;;;;;;;;;;;5012849;28;19944;-67
2022/11/14 00:02:44;;;;;;;;;;;;;;;;;;5018881;28;19917;-66
2022/11/14 00:05:10;;;;;;;;;;;;;;;;;;5019154;28;20342;-66
2022/11/14 00:07:36;;;;;;;;;;;;;;;;;;5012158;28;19929;-66
2022/11/14 00:10:01;;;;;;;;;;;;;;;;;;5021122;28;19909;-66
2022/11/14 00:12:27;;;;;;;;;;;;;;;;;;5012324;28;19914;-66
2022/11/14 00:14:54;;;;;;;;;;;;;;;;;;5016718;28;20049;-66
2022/11/14 00:17:20;;;;;;;;;;;;;;;;;;5017222;28;20394;-65
2022/11/14 00:19:46;;;;;;;;;;;;;;;;;;5011749;28;19957;-65
2022/11/14 00:22:12;;;;;;;;;;;;;;;;;;5024608;28;19915;-65
2022/11/14 00:24:38;;;;;;;;;;;;;;;;;;5011989;28;20404;-65
2022/11/14 00:27:04;;;;;;;;;;;;;;;;;;5012294;28;19917;-66
2022/11/14 00:29:29;;;;;;;;;;;;;;;;;;5011705;28;19914;-66
2022/11/14 00:31:55;;;;;;;;;;;;;;;;;;5011185;28;20012;-66
2022/11/14 00:34:21;;;;;;;;;;;;;;;;;;5022387;28;19921;-66
2022/11/14 00:36:47;;;;;;;;;;;;;;;;;;5011321;28;19945;-65
2022/11/14 00:39:13;;;;;;;;;;;;;;;;;;5014796;28;19909;-66
2022/11/14 00:41:39;;;;;;;;;;;;;;;;;;5024425;28;19940;-66
2022/11/14 00:44:05;;;;;;;;;;;;;;;;;;5011452;28;20028;-65
2022/11/14 00:46:31;;;;;;;;;;;;;;;;;;5011322;28;19917;-66
2022/11/14 00:48:56;;;;;;;;;;;;;;;;;;5012003;28;19914;-65
2022/11/14 00:51:22;;;;;;;;;;;;;;;;;;5011274;28;20302;-66
2022/11/14 00:53:48;;;;;;;;;;;;;;;;;;5011543;28;20009;-66
2022/11/14 00:56:14;;;;;;;;;;;;;;;;;;5011325;28;20008;-66
2022/11/14 00:58:40;;;;;;;;;;;;;;;;;;5011475;28;19967;-66
2022/11/14 01:01:06;;;;;;;;;;;;;;;;;;5011079;28;19937;-65
2022/11/14 01:03:32;;;;;;;;;;;;;;;;;;5011645;28;20012;-65
2022/11/14 01:05:58;;;;;;;;;;;;;;;;;;5011193;28;19913;-65
2022/11/14 01:08:23;;;;;;;;;;;;;;;;;;5011342;28;19964;-64
2022/11/14 01:10:49;;;;;;;;;;;;;;;;;;5011102;28;19910;-66
2022/11/14 01:13:15;;;;;;;;;;;;;;;;;;5029984;28;19910;-66
2022/11/14 01:15:41;;;;;;;;;;;;;;;;;;5030161;28;20380;-66
2022/11/14 01:18:07;;;;;;;;;;;;;;;;;;5029654;28;19921;-67
2022/11/14 01:20:33;;;;;;;;;;;;;;;;;;5029699;28;20318;-66
2022/11/14 01:22:59;;;;;;;;;;;;;;;;;;5029596;28;19919;-66
2022/11/14 01:25:25;;;;;;;;;;;;;;;;;;5030014;28;19909;-66
2022/11/14 01:27:50;;;;;;;;;;;;;;;;;;5029703;28;19948;-66
2022/11/14 01:30:17;;;;;;;;;;;;;;;;;;5018617;28;20408;-65
2022/11/14 01:32:43;;;;;;;;;;;;;;;;;;5011132;28;19932;-66
2022/11/14 01:35:08;;;;;;;;;;;;;;;;;;5010290;28;20425;-66
2022/11/14 01:37:34;;;;;;;;;;;;;;;;;;5010364;28;19941;-66
2022/11/14 01:40:00;;;;;;;;;;;;;;;;;;5016558;28;19909;-65
2022/11/14 01:42:26;;;;;;;;;;;;;;;;;;5010327;28;20420;-65
2022/11/14 01:44:52;;;;;;;;;;;;;;;;;;5010155;28;19921;-66
2022/11/14 01:47:18;;;;;;;;;;;;;;;;;;5010388;28;19964;-66
2022/11/14 01:49:44;;;;;;;;;;;;;;;;;;5010013;28;19917;-66
2022/11/14 01:52:10;;;;;;;;;;;;;;;;;;5010377;28;19920;-66
2022/11/14 01:54:35;;;;;;;;;;;;;;;;;;5011828;28;19921;-65
2022/11/14 01:57:01;;;;;;;;;;;;;;;;;;5025344;28;20019;-65
2022/11/14 01:59:27;;;;;;;;;;;;;;;;;;5010429;28;19971;-65
2022/11/14 02:01:53;;;;;;;;;;;;;;;;;;5024028;28;19935;-65
2022/11/14 02:04:19;;;;;;;;;;;;;;;;;;5023638;28;19996;-65
2022/11/14 02:06:45;;;;;;;;;;;;;;;;;;5010574;28;20271;-65
2022/11/14 02:09:11;;;;;;;;;;;;;;;;;;5009239;28;19913;-65
2022/11/14 02:11:37;;;;;;;;;;;;;;;;;;4992108;28;19909;-65
2022/11/14 02:14:03;;;;;;;;;;;;;;;;;;5000142;28;19921;-65
2022/11/14 02:16:28;;;;;;;;;;;;;;;;;;5009919;28;19933;-65
2022/11/14 02:18:54;;;;;;;;;;;;;;;;;;5009257;28;20008;-65
2022/11/14 02:21:20;;;;;;;;;;;;;;;;;;5009797;28;20298;-66
2022/11/14 02:23:46;;;;;;;;;;;;;;;;;;5009329;28;19914;-65
2022/11/14 02:26:12;;;;;;;;;;;;;;;;;;5010066;28;20420;-66
2022/11/14 02:28:38;;;;;;;;;;;;;;;;;;5009359;28;19913;-66
2022/11/14 02:31:04;;;;;;;;;;;;;;;;;;5014749;28;19932;-65
2022/11/14 02:33:30;;;;;;;;;;;;;;;;;;5009929;28;20342;-65
2022/11/14 02:35:55;;;;;;;;;;;;;;;;;;5335542;22;19976;-65
2022/11/14 02:38:21;;;;;;;;;;;;;;;;;;5027641;28;19913;-64
2022/11/14 02:40:47;;;;;;;;;;;;;;;;;;5033197;28;19920;-64
2022/11/14 02:43:13;;;;;;;;;;;;;;;;;;5014765;28;19909;-65
2022/11/14 02:45:39;;;;;;;;;;;;;;;;;;5033345;28;19968;-65
2022/11/14 02:48:05;;;;;;;;;;;;;;;;;;5033368;28;19954;-65
2022/11/14 02:50:31;;;;;;;;;;;;;;;;;;5033212;28;20300;-65
2022/11/14 02:52:57;;;;;;;;;;;;;;;;;;5032994;28;19913;-64
2022/11/14 02:55:23;;;;;;;;;;;;;;;;;;5033237;28;19921;-66
2022/11/14 02:57:49;;;;;;;;;;;;;;;;;;5033185;28;19909;-65
2022/11/14 03:00:14;;;;;;;;;;;;;;;;;;5032942;28;19917;-65
2022/11/14 03:02:40;;;;;;;;;;;;;;;;;;5032972;28;20332;-65
2022/11/14 03:05:06;;;;;;;;;;;;;;;;;;5032932;28;19913;-65
2022/11/14 03:07:32;;;;;;;;;;;;;;;;;;5032925;28;20571;-65
2022/11/14 03:09:58;;;;;;;;;;;;;;;;;;5032601;28;19992;-66
2022/11/14 03:12:24;;;;;;;;;;;;;;;;;;5032582;28;19913;-67
2022/11/14 03:14:50;;;;;;;;;;;;;;;;;;5032657;28;20446;-66
2022/11/14 03:17:16;;;;;;;;;;;;;;;;;;5032753;28;19960;-65
2022/11/14 03:19:42;;;;;;;;;;;;;;;;;;5032719;28;19921;-66
2022/11/14 03:22:07;;;;;;;;;;;;;;;;;;5032466;28;19913;-66
2022/11/14 03:24:33;;;;;;;;;;;;;;;;;;5032824;28;20384;-66
2022/11/14 03:26:59;;;;;;;;;;;;;;;;;;5031383;28;19913;-66
2022/11/14 03:29:25;;;;;;;;;;;;;;;;;;5032306;28;19913;-67
2022/11/14 03:31:51;;;;;;;;;;;;;;;;;;5032649;28;19963;-66
2022/11/14 03:34:17;;;;;;;;;;;;;;;;;;5032163;28;19918;-67
2022/11/14 03:36:43;;;;;;;;;;;;;;;;;;5032372;28;20312;-66
2022/11/14 03:39:09;;;;;;;;;;;;;;;;;;5031804;28;19939;-67
2022/11/14 03:41:35;;;;;;;;;;;;;;;;;;5031335;28;20439;-67
2022/11/14 03:44:00;;;;;;;;;;;;;;;;;;5031126;28;19949;-67
2022/11/14 03:46:26;;;;;;;;;;;;;;;;;;5031447;28;19972;-67
2022/11/14 03:48:52;;;;;;;;;;;;;;;;;;5031219;28;19959;-67
2022/11/14 03:51:18;;;;;;;;;;;;;;;;;;5031187;28;19924;-67
2022/11/14 03:53:44;;;;;;;;;;;;;;;;;;5030283;28;20016;-67
2022/11/14 03:56:10;;;;;;;;;;;;;;;;;;5030847;28;20355;-67
2022/11/14 03:58:36;;;;;;;;;;;;;;;;;;5031713;28;19959;-67
2022/11/14 04:01:02;;;;;;;;;;;;;;;;;;5031465;28;20016;-67
2022/11/14 04:03:28;;;;;;;;;;;;;;;;;;5031591;28;19916;-67
2022/11/14 04:05:54;;;;;;;;;;;;;;;;;;5029743;28;19909;-68
2022/11/14 04:08:20;;;;;;;;;;;;;;;;;;5031680;28;19920;-67
2022/11/14 04:10:46;;;;;;;;;;;;;;;;;;5030927;28;19924;-66
2022/11/14 04:13:12;;;;;;;;;;;;;;;;;;5031414;28;19909;-65
2022/11/14 04:15:37;;;;;;;;;;;;;;;;;;5030855;28;19936;-67
2022/11/14 04:18:03;;;;;;;;;;;;;;;;;;5031384;28;19935;-67
2022/11/14 04:20:32;;;;;;;;;;;;;;;;;;5030493;28;19936;-66
2022/11/14 04:22:58;;;;;;;;;;;;;;;;;;5031058;28;20420;-63
2022/11/14 04:25:24;;;;;;;;;;;;;;;;;;5030884;28;19948;-66
2022/11/14 04:27:50;;;;;;;;;;;;;;;;;;5030534;28;20003;-66
2022/11/14 04:30:16;;;;;;;;;;;;;;;;;;5030366;28;20292;-65
2022/11/14 04:32:42;;;;;;;;;;;;;;;;;;5031041;28;19920;-66
2022/11/14 04:35:07;;;;;;;;;;;;;;;;;;5012268;28;19925;-66
2022/11/14 04:37:33;;;;;;;;;;;;;;;;;;5031137;28;20016;-66
2022/11/14 04:40:01;;;;;;;;;;;;;;;;;;5030050;28;19910;-67
2022/11/14 04:42:27;;;;;;;;;;;;;;;;;;5030850;28;19913;-66
2022/11/14 04:44:53;;;;;;;;;;;;;;;;;;5012410;28;19909;-66
2022/11/14 04:47:19;;;;;;;;;;;;;;;;;;5030496;28;19913;-66
2022/11/14 04:49:45;;;;;;;;;;;;;;;;;;5029796;28;19909;-66
2022/11/14 04:52:10;;;;;;;;;;;;;;;;;;5030323;28;19991;-66
2022/11/14 04:54:36;;;;;;;;;;;;;;;;;;5029762;28;19924;-66
2022/11/14 04:57:02;;;;;;;;;;;;;;;;;;5030344;28;19948;-66
2022/11/14 04:59:28;;;;;;;;;;;;;;;;;;5029704;28;19913;-66
2022/11/14 05:01:54;;;;;;;;;;;;;;;;;;5027775;28;19909;-67
2022/11/14 05:04:20;;;;;;;;;;;;;;;;;;5026016;28;19913;-66
2022/11/14 05:06:46;;;;;;;;;;;;;;;;;;5029065;28;20032;-66
2022/11/14 05:09:12;;;;;;;;;;;;;;;;;;5029243;28;19909;-66
2022/11/14 05:11:37;;;;;;;;;;;;;;;;;;5029646;28;19909;-66
2022/11/14 05:14:03;;;;;;;;;;;;;;;;;;5030011;28;20352;-66
2022/11/14 05:16:29;;;;;;;;;;;;;;;;;;5029636;28;20000;-67
2022/11/14 05:18:55;;;;;;;;;;;;;;;;;;5029766;28;19913;-66
2022/11/14 05:21:21;;;;;;;;;;;;;;;;;;5029324;28;19920;-66
2022/11/14 05:23:47;;;;;;;;;;;;;;;;;;5029239;28;20003;-66
2022/11/14 05:26:13;;;;;;;;;;;;;;;;;;5023516;28;19909;-66
2022/11/14 05:28:38;;;;;;;;;;;;;;;;;;5030206;28;19913;-65
2022/11/14 05:31:04;;;;;;;;;;;;;;;;;;5024517;28;19913;-65
2022/11/14 05:33:30;;;;;;;;;;;;;;;;;;5029513;28;19913;-66
2022/11/14 05:35:56;;;;;;;;;;;;;;;;;;5029597;28;19925;-65
2022/11/14 05:38:22;;;;;;;;;;;;;;;;;;5030357;28;20362;-66
2022/11/14 05:40:48;;;;;;;;;;;;;;;;;;5029340;28;19924;-66
2022/11/14 05:43:14;;;;;;;;;;;;;;;;;;5030041;28;19948;-65
2022/11/14 05:45:40;;;;;;;;;;;;;;;;;;5028662;28;19920;-65
2022/11/14 05:48:05;;;;;;;;;;;;;;;;;;5029258;28;19917;-66
2022/11/14 05:50:31;;;;;;;;;;;;;;;;;;5029085;28;20016;-64
2022/11/14 05:52:57;;;;;;;;;;;;;;;;;;5028632;28;19963;-64
2022/11/14 05:55:23;;;;;;;;;;;;;;;;;;5029879;28;20274;-65
2022/11/14 05:57:49;;;;;;;;;;;;;;;;;;5028654;28;19909;-65
2022/11/14 06:00:15;;;;;;;;;;;;;;;;;;5028659;28;20004;-65
2022/11/14 06:02:41;;;;;;;;;;;;;;;;;;5029198;28;19976;-65
2022/11/14 06:05:07;;;;;;;;;;;;;;;;;;5029043;28;20373;-65
2022/11/14 06:07:33;;;;;;;;;;;;;;;;;;5029268;28;19955;-66
2022/11/14 06:09:58;;;;;;;;;;;;;;;;;;5028339;28;19918;-65
2022/11/14 06:12:24;;;;;;;;;;;;;;;;;;5027485;28;19992;-65
2022/11/14 06:14:50;;;;;;;;;;;;;;;;;;5028747;28;20377;-63
2022/11/14 06:17:16;;;;;;;;;;;;;;;;;;5028732;28;19913;-66
2022/11/14 06:19:42;;;;;;;;;;;;;;;;;;5028092;28;19913;-66
2022/11/14 06:22:08;;;;;;;;;;;;;;;;;;5028822;28;20369;-66
2022/11/14 06:24:34;;;;;;;;;;;;;;;;;;5028665;28;19917;-66
2022/11/14 06:27:00;;;;;;;;;;;;;;;;;;5028793;28;20357;-65
2022/11/14 06:29:26;;;;;;;;;;;;;;;;;;5027415;28;19914;-66
2022/11/14 06:31:51;;;;;;;;;;;;;;;;;;5027825;28;20377;-65
2022/11/14 06:34:17;;;;;;;;;;;;;;;;;;5028430;28;19928;-66
2022/11/14 06:36:43;;;;;;;;;;;;;;;;;;5028418;28;19928;-66
2022/11/14 06:39:09;;;;;;;;;;;;;;;;;;5028429;28;20012;-67
2022/11/14 06:41:35;;;;;;;;;;;;;;;;;;5029346;28;19913;-66
2022/11/14 06:44:01;;;;;;;;;;;;;;;;;;5028983;28;19913;-65
2022/11/14 06:46:27;;;;;;;;;;;;;;;;;;5028890;28;20051;-66
2022/11/14 06:48:53;;;;;;;;;;;;;;;;;;5028666;28;19917;-66
2022/11/14 06:51:19;;;;;;;;;;;;;;;;;;5028518;28;19913;-67
2022/11/14 06:53:44;;;;;;;;;;;;;;;;;;5028808;28;20055;-65
2022/11/14 06:56:10;;;;;;;;;;;;;;;;;;5028743;28;19913;-65
2022/11/14 06:58:37;;;;;;;;;;;;;;;;;;5028804;28;19971;-65
2022/11/14 07:01:04;;;;;;;;;;;;;;;;;;5029558;28;19920;-65
2022/11/14 07:03:29;;;;;;;;;;;;;;;;;;5028897;28;19913;-65
2022/11/14 07:05:55;;;;;;;;;;;;;;;;;;5028975;28;20289;-65
2022/11/14 07:08:21;;;;;;;;;;;;;;;;;;5028880;28;19922;-65
2022/11/14 07:10:47;;;;;;;;;;;;;;;;;;5029107;28;19963;-65
2022/11/14 07:13:13;;;;;;;;;;;;;;;;;;5029490;28;19916;-65
2022/11/14 07:15:39;;;;;;;;;;;;;;;;;;5028558;28;19913;-65
2022/11/14 07:18:05;;;;;;;;;;;;;;;;;;5028566;28;20301;-66
2022/11/14 07:20:31;;;;;;;;;;;;;;;;;;5028968;28;19913;-65
2022/11/14 07:22:57;;;;;;;;;;;;;;;;;;5027798;28;20448;-63
2022/11/14 07:25:23;;;;;;;;;;;;;;;;;;5031846;28;19909;-65
2022/11/14 07:27:48;;;;;;;;;;;;;;;;;;5031463;28;19955;-66
2022/11/14 07:30:14;;;;;;;;;;;;;;;;;;5032166;28;19909;-66
2022/11/14 07:32:40;;;;;;;;;;;;;;;;;;5031957;28;20023;-64
2022/11/14 07:35:06;;;;;;;;;;;;;;;;;;5031602;28;19952;-64
2022/11/14 07:37:32;;;;;;;;;;;;;;;;;;5031011;28;19948;-64
2022/11/14 07:39:58;;;;;;;;;;;;;;;;;;5031376;28;19917;-66
2022/11/14 07:42:24;;;;;;;;;;;;;;;;;;5031537;28;20294;-66
2022/11/14 07:44:50;;;;;;;;;;;;;;;;;;5031130;28;19995;-65
2022/11/14 07:47:16;;;;;;;;;;;;;;;;;;5028192;28;20495;-67
2022/11/14 07:49:41;;;;;;;;;;;;;;;;;;5022815;28;19967;-76
2022/11/14 07:52:07;;;;;;;;;;;;;;;;;;5028580;28;20036;-76
2022/11/14 07:54:33;;;;;;;;;;;;;;;;;;5026639;28;19929;-75
2022/11/14 07:56:59;;;;;;;;;;;;;;;;;;5029378;28;19917;-74
2022/11/14 07:59:25;;;;;;;;;;;;;;;;;;5028002;28;19921;-74
2022/11/14 08:01:51;;;;;;;;;;;;;;;;;;5028989;28;20344;-73
2022/11/14 08:04:17;;;;;;;;;;;;;;;;;;5029498;28;19956;-75
2022/11/14 08:06:43;;;;;;;;;;;;;;;;;;5029279;28;19921;-76
2022/11/14 08:09:09;;;;;;;;;;;;;;;;;;5027920;28;20588;-73
2022/11/14 08:11:47;;;;;;;;;;;;;;;;;;5029091;28;19917;-75
2022/11/14 08:14:13;;;;;;;;;;;;;;;;;;5028981;28;19929;-76
2022/11/14 08:16:38;;;;;;;;;;;;;;;;;;5014992;28;19933;-75
2022/11/14 08:19:04;;;;;;;;;;;;;;;;;;5028890;28;19921;-72
2022/11/14 08:21:30;;;;;;;;;;;;;;;;;;5029060;28;19917;-76
2022/11/14 08:23:56;;;;;;;;;;;;;;;;;;5028883;28;19959;-75
2022/11/14 08:26:22;;;;;;;;;;;;;;;;;;5028337;28;20300;-76
2022/11/14 08:28:48;;;;;;;;;;;;;;;;;;5029312;28;19917;-77
2022/11/14 08:31:14;;;;;;;;;;;;;;;;;;5028725;28;19986;-77
2022/11/14 08:33:40;;;;;;;;;;;;;;;;;;5029185;28;20012;-73
2022/11/14 08:36:06;;;;;;;;;;;;;;;;;;5026937;28;20011;-77
2022/11/14 08:38:31;;;;;;;;;;;;;;;;;;5029072;28;19917;-74
2022/11/14 08:40:58;;;;;;;;;;;;;;;;;;5028908;28;19920;-76
2022/11/14 08:43:23;;;;;;;;;;;;;;;;;;5029327;28;19917;-76
2022/11/14 08:45:49;;;;;;;;;;;;;;;;;;5028572;28;20645;-77
2022/11/14 08:48:15;;;;;;;;;;;;;;;;;;5029440;28;20000;-76
2022/11/14 08:50:41;;;;;;;;;;;;;;;;;;5029115;28;19913;-73
2022/11/14 08:53:07;;;;;;;;;;;;;;;;;;5027829;28;19924;-77
2022/11/14 08:55:33;;;;;;;;;;;;;;;;;;5028223;28;19921;-75
2022/11/14 08:57:59;;;;;;;;;;;;;;;;;;5029028;28;19924;-72
2022/11/14 09:00:25;;;;;;;;;;;;;;;;;;5028370;28;19920;-76
2022/11/14 09:02:51;;;;;;;;;;;;;;;;;;5028608;28;20023;-73
2022/11/14 09:05:17;;;;;;;;;;;;;;;;;;5028811;28;19917;-76
2022/11/14 09:07:43;;;;;;;;;;;;;;;;;;5028189;28;19978;-73
2022/11/14 09:10:09;;;;;;;;;;;;;;;;;;5028395;28;19913;-77
2022/11/14 09:12:34;;;;;;;;;;;;;;;;;;5028826;28;20024;-74
2022/11/14 09:15:00;;;;;;;;;;;;;;;;;;5016993;28;19925;-75
2022/11/14 09:17:26;;;;;;;;;;;;;;;;;;5028441;28;19913;-76
2022/11/14 09:19:53;;;;;;;;;;;;;;;;;;5028246;28;19917;-76
2022/11/14 09:22:18;;;;;;;;;;;;;;;;;;5028223;28;20473;-76
2022/11/14 09:24:48;;;;;;;;;;;;;;;;;;5028082;28;20023;-75
2022/11/14 09:27:14;;;;;;;;;;;;;;;;;;5028015;28;19924;-74
2022/11/14 09:29:40;;;;;;;;;;;;;;;;;;5028111;28;20016;-75
2022/11/14 09:32:05;;;;;;;;;;;;;;;;;;5026868;28;20492;-75
2022/11/14 09:34:32;;;;;;;;;;;;;;;;;;5028223;28;19972;-75
2022/11/14 09:36:58;;;;;;;;;;;;;;;;;;5028003;28;20456;-75
2022/11/14 09:39:24;;;;;;;;;;;;;;;;;;5027168;28;19917;-74
2022/11/14 09:41:49;;;;;;;;;;;;;;;;;;5028381;28;20027;-75
2022/11/14 09:44:15;;;;;;;;;;;;;;;;;;5026617;28;19947;-75
2022/11/14 09:46:43;;;;;;;;;;;;;;;;;;5027286;28;19978;-73
2022/11/14 09:49:09;;;;;;;;;;;;;;;;;;5027576;28;19917;-74
2022/11/14 09:51:35;;;;;;;;;;;;;;;;;;5027694;28;20424;-74
2022/11/14 09:54:01;;;;;;;;;;;;;;;;;;5027572;28;19923;-74
2022/11/14 09:56:27;;;;;;;;;;;;;;;;;;5027768;28;20757;-74
2022/11/14 09:58:56;;;;;;;;;;;;;;;;;;5027516;28;19921;-76
2022/11/14 10:01:22;;;;;;;;;;;;;;;;;;5025991;28;20001;-78
2022/11/14 10:03:48;;;;;;;;;;;;;;;;;;5027706;28;20462;-78
2022/11/14 10:06:14;;;;;;;;;;;;;;;;;;5027778;28;20768;-77
2022/11/14 10:08:40;;;;;;;;;;;;;;;;;;5011566;28;19999;-77
2022/11/14 10:11:06;;;;;;;;;;;;;;;;;;5026786;28;20005;-76
2022/11/14 10:13:32;;;;;;;;;;;;;;;;;;5026855;28;20302;-76
2022/11/14 10:15:58;;;;;;;;;;;;;;;;;;5027219;28;20027;-75
2022/11/14 10:18:23;;;;;;;;;;;;;;;;;;5026795;28;19967;-76
2022/11/14 10:20:49;;;;;;;;;;;;;;;;;;5027120;28;19921;-75
2022/11/14 10:23:15;;;;;;;;;;;;;;;;;;5026487;28;19975;-77
2022/11/14 10:25:41;;;;;;;;;;;;;;;;;;5027111;28;19923;-76
2022/11/14 10:28:07;;;;;;;;;;;;;;;;;;5026538;28;20004;-77
2022/11/14 10:30:33;;;;;;;;;;;;;;;;;;5026530;28;19963;-77
2022/11/14 10:32:59;;;;;;;;;;;;;;;;;;5026441;28;19924;-79
2022/11/14 10:35:25;;;;;;;;;;;;;;;;;;5026331;28;20343;-78
2022/11/14 10:37:50;;;;;;;;;;;;;;;;;;5027433;28;19917;-77
2022/11/14 10:40:16;;;;;;;;;;;;;;;;;;5027375;28;19920;-78
2022/11/14 10:42:42;;;;;;;;;;;;;;;;;;5026848;28;19932;-78
2022/11/14 10:45:08;;;;;;;;;;;;;;;;;;5027358;28;19923;-77
2022/11/14 10:47:34;;;;;;;;;;;;;;;;;;5027398;28;19917;-79
2022/11/14 10:50:00;;;;;;;;;;;;;;;;;;5026956;28;19922;-77
2022/11/14 10:52:26;;;;;;;;;;;;;;;;;;5026823;28;20401;-78
2022/11/14 10:54:52;;;;;;;;;;;;;;;;;;5025644;28;19925;-77
2022/11/14 10:57:17;;;;;;;;;;;;;;;;;;5026276;28;19921;-79
2022/11/14 10:59:43;;;;;;;;;;;;;;;;;;5029134;28;20456;-77
2022/11/14 11:02:09;;;;;;;;;;;;;;;;;;5030274;28;19951;-77
2022/11/14 11:04:35;;;;;;;;;;;;;;;;;;5032499;28;19914;-78
2022/11/14 11:07:01;;;;;;;;;;;;;;;;;;5030722;28;19917;-77
2022/11/14 11:12:12;;;;;;;;;;;;;;;;;;5030452;28;20028;-76
2022/11/14 11:14:38;;;;;;;;;;;;;;;;;;5029831;28;19922;-77
2022/11/14 11:17:04;;;;;;;;;;;;;;;;;;5030221;28;20450;-78
2022/11/14 11:19:29;;;;;;;;;;;;;;;;;;5030049;28;20400;-80
2022/11/14 11:21:55;;;;;;;;;;;;;;;;;;5028117;28;19963;-78
2022/11/14 11:24:21;;;;;;;;;;;;;;;;;;5029006;28;19921;-78
2022/11/14 11:26:47;;;;;;;;;;;;;;;;;;5029956;28;19964;-77
2022/11/14 11:29:13;;;;;;;;;;;;;;;;;;5029194;28;19968;-77
2022/11/14 11:31:39;;;;;;;;;;;;;;;;;;5029240;28;19921;-78
2022/11/14 11:34:05;;;;;;;;;;;;;;;;;;5029755;28;19930;-78
2022/11/14 11:36:31;;;;;;;;;;;;;;;;;;5029850;28;19925;-80
2022/11/14 11:38:57;;;;;;;;;;;;;;;;;;5028554;28;19955;-75
2022/11/14 11:41:23;;;;;;;;;;;;;;;;;;5030009;28;19998;-75
2022/11/14 11:43:49;;;;;;;;;;;;;;;;;;5028140;28;19913;-78
2022/11/14 11:46:14;;;;;;;;;;;;;;;;;;5025165;28;19917;-78
2022/11/14 11:48:40;;;;;;;;;;;;;;;;;;5026886;28;19916;-78
2022/11/14 11:51:06;;;;;;;;;;;;;;;;;;5031047;28;19976;-75
2022/11/14 11:53:32;;;;;;;;;;;;;;;;;;5028020;28;20390;-78
2022/11/14 11:55:58;;;;;;;;;;;;;;;;;;5031256;28;20016;-78
2022/11/14 11:58:24;;;;;;;;;;;;;;;;;;5030301;28;20388;-77
2022/11/14 12:00:50;;;;;;;;;;;;;;;;;;5031741;28;19915;-78
2022/11/14 12:03:16;;;;;;;;;;;;;;;;;;5031521;28;19966;-78
2022/11/14 12:05:43;;;;;;;;;;;;;;;;;;5031032;28;20381;-79
2022/11/14 12:08:10;;;;;;;;;;;;;;;;;;5031958;28;20365;-78
2022/11/14 12:10:36;;;;;;;;;;;;;;;;;;5024762;28;19929;-77
2022/11/14 12:13:02;;;;;;;;;;;;;;;;;;5028078;28;20054;-77
2022/11/14 12:15:28;;;;;;;;;;;;;;;;;;5013842;28;19950;-77
2022/11/14 12:17:54;;;;;;;;;;;;;;;;;;5031189;28;19909;-79
2022/11/14 12:20:20;;;;;;;;;;;;;;;;;;5031759;28;19914;-78
2022/11/14 12:22:46;;;;;;;;;;;;;;;;;;5031229;28;20384;-78
2022/11/14 12:25:12;;;;;;;;;;;;;;;;;;5031366;28;20683;-78
2022/11/14 12:27:38;;;;;;;;;;;;;;;;;;5031503;28;19913;-77
2022/11/14 12:30:04;;;;;;;;;;;;;;;;;;5025826;28;20341;-78
2022/11/14 12:32:29;;;;;;;;;;;;;;;;;;5031391;28;19913;-77
2022/11/14 12:34:55;;;;;;;;;;;;;;;;;;5028340;28;19932;-78
2022/11/14 12:37:21;;;;;;;;;;;;;;;;;;5030563;28;20302;-77
2022/11/14 12:39:47;;;;;;;;;;;;;;;;;;5030309;28;19916;-77
2022/11/14 12:42:13;;;;;;;;;;;;;;;;;;5030573;28;20018;-78
2022/11/14 12:44:39;;;;;;;;;;;;;;;;;;5031220;28;19910;-77
2022/11/14 12:47:05;;;;;;;;;;;;;;;;;;5030662;28;20324;-77
2022/11/14 12:49:31;;;;;;;;;;;;;;;;;;5030776;28;19993;-77
2022/11/14 12:51:56;;;;;;;;;;;;;;;;;;5029718;28;19955;-78
2022/11/14 12:54:22;;;;;;;;;;;;;;;;;;5030407;28;19925;-77
2022/11/14 12:56:48;;;;;;;;;;;;;;;;;;5030427;28;19909;-78
2022/11/14 12:59:14;;;;;;;;;;;;;;;;;;5028775;28;19913;-79
2022/11/14 13:01:40;;;;;;;;;;;;;;;;;;5030685;28;19913;-78
2022/11/14 13:04:06;;;;;;;;;;;;;;;;;;5028000;28;19951;-77
2022/11/14 13:06:32;;;;;;;;;;;;;;;;;;5029855;28;19913;-77
2022/11/14 13:08:58;;;;;;;;;;;;;;;;;;5031135;28;20282;-78
2022/11/14 13:21:44;;;;;;;;;;;;;;;;;;5031101;28;20020;-78
2022/11/14 13:22:24;;;;;;;;;;;;;;;;;;5028913;28;19958;-78
2022/11/14 13:24:50;;;;;;;;;;;;;;;;;;5026786;28;19913;-78
2022/11/14 13:27:16;;;;;;;;;;;;;;;;;;5030822;28;19919;-78
2022/11/14 13:29:42;;;;;;;;;;;;;;;;;;5030028;28;20396;-78
2022/11/14 13:32:08;;;;;;;;;;;;;;;;;;5029971;28;19920;-78
2022/11/14 13:34:34;;;;;;;;;;;;;;;;;;5029643;28;20445;-77
2022/11/14 13:37:00;;;;;;;;;;;;;;;;;;5030148;28;19921;-78
2022/11/14 13:39:25;;;;;;;;;;;;;;;;;;5029712;28;19917;-75
2022/11/14 13:41:51;;;;;;;;;;;;;;;;;;5029988;28;19996;-78
2022/11/14 13:44:17;;;;;;;;;;;;;;;;;;5029785;28;20378;-77
2022/11/14 13:46:43;;;;;;;;;;;;;;;;;;5029254;28;19913;-78
2022/11/14 13:49:09;;;;;;;;;;;;;;;;;;5030195;28;20405;-78
2022/11/14 13:51:35;;;;;;;;;;;;;;;;;;5030060;28;20371;-78
2022/11/14 13:54:01;;;;;;;;;;;;;;;;;;5030056;28;19913;-78
2022/11/14 13:56:27;;;;;;;;;;;;;;;;;;5030101;28;19940;-78
2022/11/14 13:58:53;;;;;;;;;;;;;;;;;;5029805;28;20667;-78
2022/11/14 14:01:18;;;;;;;;;;;;;;;;;;5030019;28;19913;-77
2022/11/14 14:03:44;;;;;;;;;;;;;;;;;;5030113;28;19913;-74
2022/11/14 14:06:10;;;;;;;;;;;;;;;;;;5018511;28;20331;-77
2022/11/14 14:08:36;;;;;;;;;;;;;;;;;;5024404;28;19914;-78
2022/11/14 14:11:02;;;;;;;;;;;;;;;;;;5020992;28;20365;-78
2022/11/14 14:13:28;;;;;;;;;;;;;;;;;;5025010;28;20288;-77
2022/11/14 14:15:54;;;;;;;;;;;;;;;;;;5022349;28;20015;-77
2022/11/14 14:18:20;;;;;;;;;;;;;;;;;;5023350;28;19964;-77
2022/11/14 14:20:46;;;;;;;;;;;;;;;;;;5023463;28;19924;-78
2022/11/14 14:23:11;;;;;;;;;;;;;;;;;;5023769;28;20020;-77
2022/11/14 14:25:37;;;;;;;;;;;;;;;;;;5023640;28;19910;-78
2022/11/14 14:28:03;;;;;;;;;;;;;;;;;;5024628;28;19925;-76
2022/11/14 14:30:29;;;;;;;;;;;;;;;;;;5024675;28;19913;-77
2022/11/14 14:32:55;;;;;;;;;;;;;;;;;;5021883;28;20004;-78
2022/11/14 14:35:21;;;;;;;;;;;;;;;;;;5024763;28;20036;-76
2022/11/14 14:37:47;;;;;;;;;;;;;;;;;;5021246;28;19913;-79
2022/11/14 14:40:13;;;;;;;;;;;;;;;;;;5024338;28;19913;-77
2022/11/14 14:42:38;;;;;;;;;;;;;;;;;;5018104;28;19915;-77
2022/11/14 14:45:04;;;;;;;;;;;;;;;;;;5025825;28;19936;-77
2022/11/14 14:47:31;;;;;;;;;;;;;;;;;;5020726;28;20028;-76
2022/11/14 14:49:57;;;;;;;;;;;;;;;;;;5026307;28;20348;-77
2022/11/14 14:52:23;;;;;;;;;;;;;;;;;;5026096;28;19913;-78
2022/11/14 14:54:48;;;;;;;;;;;;;;;;;;5019718;28;19921;-75
2022/11/14 14:57:14;;;;;;;;;;;;;;;;;;5024062;28;19913;-77
2022/11/14 14:59:41;;;;;;;;;;;;;;;;;;5025019;28;19949;-76
2022/11/14 15:02:06;;;;;;;;;;;;;;;;;;5023449;28;19917;-77
2022/11/14 15:04:32;;;;;;;;;;;;;;;;;;5026008;28;19913;-76
2022/11/14 15:06:58;;;;;;;;;;;;;;;;;;5023495;28;19996;-76
2022/11/14 15:09:24;;;;;;;;;;;;;;;;;;5019568;28;19964;-77
2022/11/14 15:11:50;;;;;;;;;;;;;;;;;;5023844;28;19913;-76
2022/11/14 15:14:16;;;;;;;;;;;;;;;;;;5018036;28;19983;-76
2022/11/14 15:16:42;;;;;;;;;;;;;;;;;;5024996;28;19952;-77
2022/11/14 15:19:08;;;;;;;;;;;;;;;;;;5018902;28;19957;-78
2022/11/14 15:21:33;;;;;;;;;;;;;;;;;;5024843;28;20381;-76
2022/11/14 15:24:00;;;;;;;;;;;;;;;;;;5019598;28;19932;-77
2022/11/14 15:26:25;;;;;;;;;;;;;;;;;;5023130;28;19913;-76
2022/11/14 15:28:51;;;;;;;;;;;;;;;;;;5021614;28;20041;-76
2022/11/14 15:31:18;;;;;;;;;;;;;;;;;;5024252;28;20267;-76
2022/11/14 15:33:43;;;;;;;;;;;;;;;;;;5021841;28;19924;-76
2022/11/14 15:36:09;;;;;;;;;;;;;;;;;;5026275;28;19925;-76
2022/11/14 15:38:35;;;;;;;;;;;;;;;;;;5024070;28;19917;-76
2022/11/14 15:41:01;;;;;;;;;;;;;;;;;;5024185;28;19917;-76
2022/11/14 15:43:27;;;;;;;;;;;;;;;;;;5024472;28;20008;-75
2022/11/14 15:45:55;;;;;;;;;;;;;;;;;;5026326;28;19921;-76
2022/11/14 15:48:21;;;;;;;;;;;;;;;;;;5027534;28;19913;-76
2022/11/14 15:50:47;;;;;;;;;;;;;;;;;;5025509;28;19917;-76
2022/11/14 15:53:12;;;;;;;;;;;;;;;;;;5027732;28;19913;-75
2022/11/14 15:55:38;;;;;;;;;;;;;;;;;;5024906;28;19925;-76
2022/11/14 15:58:04;;;;;;;;;;;;;;;;;;5028022;28;19924;-76
2022/11/14 16:00:30;;;;;;;;;;;;;;;;;;5029037;28;19968;-76
2022/11/14 16:02:56;;;;;;;;;;;;;;;;;;5027751;28;20293;-77
2022/11/14 16:05:22;;;;;;;;;;;;;;;;;;5022593;28;19920;-77
2022/11/14 16:07:48;;;;;;;;;;;;;;;;;;5023733;28;19914;-75
2022/11/14 16:10:14;;;;;;;;;;;;;;;;;;5023700;28;19924;-77
2022/11/14 16:12:40;;;;;;;;;;;;;;;;;;5025460;28;20056;-77
2022/11/14 16:15:06;;;;;;;;;;;;;;;;;;5023563;28;19925;-76
2022/11/14 16:17:31;;;;;;;;;;;;;;;;;;5026815;28;20003;-77
2022/11/14 16:19:57;;;;;;;;;;;;;;;;;;5025678;28;19920;-77
2022/11/14 16:22:23;;;;;;;;;;;;;;;;;;5022495;28;19917;-78
2022/11/14 16:24:49;;;;;;;;;;;;;;;;;;5024029;28;20003;-76
2022/11/14 16:27:15;;;;;;;;;;;;;;;;;;5022750;28;20339;-76
2022/11/14 16:29:41;;;;;;;;;;;;;;;;;;5026155;28;19927;-76
2022/11/14 16:32:07;;;;;;;;;;;;;;;;;;5019815;28;19925;-76
2022/11/14 16:34:33;;;;;;;;;;;;;;;;;;5026188;28;19921;-76
2022/11/14 16:36:58;;;;;;;;;;;;;;;;;;5016351;28;19921;-76
2022/11/14 16:39:24;;;;;;;;;;;;;;;;;;5027042;28;19917;-78
2022/11/14 16:41:50;;;;;;;;;;;;;;;;;;5020789;28;19913;-75
2022/11/14 16:44:17;;;;;;;;;;;;;;;;;;5025359;28;19917;-75
2022/11/14 16:46:43;;;;;;;;;;;;;;;;;;5021650;28;19956;-77